EST,Max TemperatureF,Mean TemperatureF,Min TemperatureF,Max Dew PointF,MeanDew PointF,Min DewpointF,Max Humidity, Mean Humidity, Min Humidity, Max Sea Level PressureIn, Mean Sea Level PressureIn, Min Sea Level PressureIn, Max VisibilityMiles, Mean VisibilityMiles, Min VisibilityMiles, Max Wind SpeedMPH, Mean Wind SpeedMPH, Max Gust SpeedMPH,PrecipitationIn, CloudCover, Events, WindDirDegrees
2013-12-1,56,50,43,36,31,26,70,56,42,30.20,30.09,29.96,10,10,10,13,6,16,0.00,6,,207
2013-12-2,58,48,38,41,37,33,79,65,51,29.95,29.84,29.76,10,10,8,9,2,10,0.00,6,,138
2013-12-3,59,51,42,49,46,39,100,84,67,29.86,29.80,29.77,10,6,0,13,5,16,T,7,Fog,142
2013-12-4,71,61,50,58,53,47,100,81,61,29.83,29.78,29.69,10,6,1,18,10,28,0.00,7,,155
2013-12-5,70,52,34,63,46,30,92,79,66,30.18,29.96,29.78,10,6,2,20,12,25,0.56,8,Rain-Thunderstorm,300
2013-12-6,35,32,28,30,27,24,92,87,82,30.42,30.23,30.13,10,4,0,20,13,24,0.82,8,Rain-Snow,356
2013-12-7,28,24,19,25,20,15,92,84,75,30.63,30.55,30.43,9,7,6,17,9,22,0.00,7,,3
2013-12-8,34,29,24,34,25,19,96,89,81,30.48,30.21,30.04,10,4,0,14,5,15,0.19,8,Fog-Rain-Snow,56
2013-12-9,34,31,27,32,26,18,96,83,69,30.27,30.19,30.06,10,8,1,16,8,20,T,8,Rain,268
2013-12-10,32,27,22,21,19,17,88,73,58,30.40,30.29,30.20,10,8,2,17,8,22,0.03,5,Snow,275
2013-12-11,38,29,20,25,21,14,92,76,59,30.57,30.43,30.35,10,9,5,20,9,24,0.00,4,,251
2013-12-12,30,21,12,13,9,5,84,60,35,30.63,30.54,30.39,10,9,6,10,5,14,0.00,2,,250
2013-12-13,44,34,23,33,20,12,92,65,38,30.38,30.26,30.14,10,10,3,14,5,21,0.03,6,Rain-Snow,164
2013-12-14,42,39,35,41,36,31,100,93,85,30.10,29.87,29.73,10,6,0,18,8,26,0.49,8,Rain-Snow,197
2013-12-15,35,32,28,30,25,22,85,77,69,30.17,30.09,29.96,10,9,5,18,11,26,T,8,Snow,271
2013-12-16,46,39,32,34,30,27,82,71,60,30.16,30.09,30.02,10,9,7,13,6,17,0.00,6,,198
2013-12-17,45,38,30,35,30,24,89,77,64,30.25,30.12,30.01,10,7,2,17,8,22,T,6,,284
2013-12-18,45,35,25,26,19,14,85,57,28,30.34,30.24,30.10,10,10,7,15,8,17,0.00,1,,212
2013-12-19,63,53,42,43,31,16,61,45,28,30.13,30.06,29.99,10,10,10,28,11,35,0.00,7,,193
2013-12-20,64,58,52,58,48,35,90,67,43,29.97,29.92,29.85,10,10,7,18,12,26,0.03,8,Rain,187
2013-12-21,70,65,60,63,60,57,100,88,76,29.84,29.69,29.47,10,6,1,41,13,52,2.52,8,Rain-Thunderstorm,190
2013-12-22,63,51,38,59,47,33,92,82,71,30.12,29.84,29.58,10,10,6,28,13,38,0.22,7,Rain-Thunderstorm,239
2013-12-23,38,33,28,34,25,19,89,74,59,30.45,30.33,30.14,10,10,8,20,10,26,0.01,7,Rain,300
2013-12-24,28,22,16,21,10,5,81,62,42,30.61,30.54,30.44,10,10,5,18,7,23,T,3,Snow,327
2013-12-25,42,31,19,22,15,12,74,54,34,30.48,30.37,30.25,10,10,10,14,6,16,0.00,5,,180
2013-12-26,44,37,30,27,25,23,78,62,45,30.42,30.35,30.24,10,10,9,20,7,25,0.00,4,,242
2013-12-27,52,39,26,27,25,22,81,60,38,30.45,30.39,30.35,10,10,8,14,6,18,0.00,1,,180
2013-12-28,52,42,31,36,27,23,78,57,36,30.33,30.23,30.03,10,10,8,12,5,22,0.05,6,Rain,156
2013-12-29,49,41,32,41,36,27,93,82,71,30.12,29.95,29.87,10,7,3,25,9,30,0.48,8,Rain,260
2013-12-30,32,28,24,27,20,14,85,71,57,30.30,30.23,30.13,10,10,8,18,7,21,T,7,Snow,285
2013-12-31,40,32,24,22,18,15,68,54,40,30.45,30.34,30.25,10,10,10,13,7,16,0.00,3,,216